Time;durP1;ratioP1;P1;durP2;ratioP2;P2;SDS_P1;SDS_P2;PMS_P1;PMS_P2;Temp;Humidity;BMP_temperature;BMP_pressure;BME280_temperature;BME280_humidity;BME280_pressure;Samples;Min_cycle;Max_cycle;Signal;HPM_P1;HPM_P2
2022/04/29 00:00:45;;;;;;;;;;;15.00;44.30;;;;;;5016858;28;20432;-60
2022/04/29 00:03:12;;;;;;;;;;;15.00;44.00;;;;;;5017004;28;20004;-61
2022/04/29 00:05:39;;;;;;;;;;;15.00;44.00;;;;;;5017027;28;19910;-63
2022/04/29 00:08:05;;;;;;;;;;;14.90;44.10;;;;;;5015949;28;20381;-62
2022/04/29 00:10:31;;;;;;;;;;;15.00;43.90;;;;;;5016210;28;19910;-63
2022/04/29 00:12:58;;;;;;;;;;;15.00;44.30;;;;;;5016503;28;19933;-62
2022/04/29 00:15:24;;;;;;;;;;;15.00;44.20;;;;;;5016849;28;19909;-61
2022/04/29 00:17:49;;;;;;;;;;;15.00;43.80;;;;;;5016673;28;19909;-60
2022/04/29 00:20:15;;;;;;;;;;;15.10;43.80;;;;;;5016687;28;19921;-59
2022/04/29 00:22:41;;;;;;;;;;;15.10;44.10;;;;;;5016290;28;20374;-59
2022/04/29 00:25:07;;;;;;;;;;;15.10;44.30;;;;;;5016458;28;19913;-60
2022/04/29 00:27:33;;;;;;;;;;;15.10;44.00;;;;;;5016524;28;19945;-61
2022/04/29 00:29:59;;;;;;;;;;;15.10;45.00;;;;;;5016437;28;20448;-60
2022/04/29 00:32:24;;;;;;;;;;;15.00;44.30;;;;;;5016265;28;19920;-61
2022/04/29 00:34:56;;;;;;;;;;;15.00;44.90;;;;;;5016372;28;19931;-60
2022/04/29 00:37:21;;;;;;;;;;;14.90;44.50;;;;;;5016104;28;19913;-62
2022/04/29 00:39:47;;;;;;;;;;;15.00;43.80;;;;;;5015859;28;20258;-62
2022/04/29 00:42:14;;;;;;;;;;;15.00;44.10;;;;;;5016631;28;19952;-64
2022/04/29 00:44:40;;;;;;;;;;;15.00;44.20;;;;;;5016008;28;19916;-63
2022/04/29 00:47:08;;;;;;;;;;;15.10;43.50;;;;;;5016182;28;20277;-60
2022/04/29 00:49:33;;;;;;;;;;;15.10;43.50;;;;;;5016084;28;19910;-61
2022/04/29 00:51:59;;;;;;;;;;;15.10;43.60;;;;;;5015916;28;19910;-59
2022/04/29 00:54:30;;;;;;;;;;;15.10;43.70;;;;;;5015934;28;20365;-58
2022/04/29 00:56:56;;;;;;;;;;;15.00;43.90;;;;;;5016007;28;19940;-61
2022/04/29 00:59:38;;;;;;;;;;;15.00;44.10;;;;;;5016050;28;19917;-59
2022/04/29 01:02:07;;;;;;;;;;;14.90;44.60;;;;;;5015549;28;20007;-62
2022/04/29 01:04:55;;;;;;;;;;;14.90;44.50;;;;;;5015684;28;19913;-60
2022/04/29 01:07:22;;;;;;;;;;;14.90;44.50;;;;;;5010082;28;19909;-61
2022/04/29 01:09:48;;;;;;;;;;;14.90;44.20;;;;;;5015979;28;19916;-61
2022/04/29 01:12:14;;;;;;;;;;;14.90;44.30;;;;;;5015551;28;20350;-61
2022/04/29 01:14:40;;;;;;;;;;;14.90;44.20;;;;;;5015531;28;19967;-61
2022/04/29 01:17:06;;;;;;;;;;;14.90;44.10;;;;;;5015460;28;19917;-61
2022/04/29 01:19:31;;;;;;;;;;;14.70;44.60;;;;;;5015231;28;19918;-63
2022/04/29 01:22:00;;;;;;;;;;;14.60;44.90;;;;;;5015453;28;19914;-61
2022/04/29 01:24:26;;;;;;;;;;;14.50;44.70;;;;;;5015171;28;20016;-60
2022/04/29 01:26:51;;;;;;;;;;;14.60;45.20;;;;;;5015311;28;19949;-61
2022/04/29 01:29:18;;;;;;;;;;;14.60;45.00;;;;;;5015373;28;19909;-60
2022/04/29 01:31:45;;;;;;;;;;;14.70;44.90;;;;;;5015175;28;19910;-60
2022/04/29 01:34:11;;;;;;;;;;;14.70;44.90;;;;;;5015584;28;20320;-61
2022/04/29 01:36:36;;;;;;;;;;;14.60;44.80;;;;;;5015502;28;20008;-60
2022/04/29 01:39:02;;;;;;;;;;;14.60;44.80;;;;;;5014942;28;19936;-59
2022/04/29 01:41:27;;;;;;;;;;;14.60;44.80;;;;;;5015209;28;19913;-59
2022/04/29 01:43:53;;;;;;;;;;;14.60;44.70;;;;;;5015578;28;19963;-61
2022/04/29 01:46:18;;;;;;;;;;;14.60;44.60;;;;;;5015437;28;19909;-60
2022/04/29 01:48:44;;;;;;;;;;;14.60;44.40;;;;;;5015120;28;19917;-58
2022/04/29 01:51:10;;;;;;;;;;;14.60;44.40;;;;;;5013585;28;19917;-58
2022/04/29 01:53:35;;;;;;;;;;;14.60;44.20;;;;;;5014949;28;19910;-58
2022/04/29 01:56:01;;;;;;;;;;;14.60;44.10;;;;;;5014659;28;19988;-58
2022/04/29 01:58:26;;;;;;;;;;;14.60;43.90;;;;;;5014604;28;19972;-58
2022/04/29 02:00:52;;;;;;;;;;;14.60;43.80;;;;;;5014950;28;20327;-60
2022/04/29 02:03:17;;;;;;;;;;;14.70;43.80;;;;;;5014367;28;19914;-59
2022/04/29 02:05:43;;;;;;;;;;;14.70;43.80;;;;;;5014569;28;19909;-58
2022/04/29 02:08:09;;;;;;;;;;;14.60;43.60;;;;;;5014370;28;20274;-60
2022/04/29 02:10:36;;;;;;;;;;;14.70;43.30;;;;;;5014590;28;19914;-60
2022/04/29 02:13:01;;;;;;;;;;;14.60;44.00;;;;;;5014394;28;19916;-63
2022/04/29 02:15:27;;;;;;;;;;;14.60;43.20;;;;;;5014443;28;19914;-58
2022/04/29 02:17:52;;;;;;;;;;;14.70;43.20;;;;;;5014460;28;19909;-61
2022/04/29 02:20:18;;;;;;;;;;;14.60;43.40;;;;;;5014592;28;19923;-60
2022/04/29 02:22:43;;;;;;;;;;;14.60;43.40;;;;;;5014504;28;19956;-60
2022/04/29 02:25:09;;;;;;;;;;;14.50;43.40;;;;;;5014400;28;19936;-64
2022/04/29 02:27:36;;;;;;;;;;;14.60;43.00;;;;;;5014349;28;20048;-64
2022/04/29 02:30:02;;;;;;;;;;;14.60;43.00;;;;;;5014561;28;19909;-59
2022/04/29 02:32:27;;;;;;;;;;;14.60;43.00;;;;;;5013427;28;19909;-59
2022/04/29 02:34:53;;;;;;;;;;;14.60;42.90;;;;;;5014278;28;20012;-60
2022/04/29 02:37:19;;;;;;;;;;;14.60;42.90;;;;;;5014421;28;19910;-61
2022/04/29 02:39:44;;;;;;;;;;;14.60;43.20;;;;;;5014052;28;20509;-59
2022/04/29 02:42:10;;;;;;;;;;;14.50;43.30;;;;;;5014063;28;20273;-60
2022/04/29 02:44:36;;;;;;;;;;;14.60;43.30;;;;;;5014391;28;20266;-60
2022/04/29 02:47:07;;;;;;;;;;;14.60;43.30;;;;;;5014024;28;19909;-59
2022/04/29 02:49:34;;;;;;;;;;;14.60;43.10;;;;;;5014231;28;19910;-60
2022/04/29 02:51:59;;;;;;;;;;;14.50;43.50;;;;;;5013813;28;19910;-64
2022/04/29 02:54:25;;;;;;;;;;;14.50;43.30;;;;;;5014054;28;19983;-60
2022/04/29 02:56:52;;;;;;;;;;;14.50;43.50;;;;;;5014089;28;20372;-65
2022/04/29 02:59:18;;;;;;;;;;;14.40;43.70;;;;;;5013932;28;19924;-62
2022/04/29 03:01:44;;;;;;;;;;;14.40;43.20;;;;;;5013845;28;20048;-61
2022/04/29 03:04:09;;;;;;;;;;;14.40;44.40;;;;;;5013874;28;20012;-59
2022/04/29 03:06:35;;;;;;;;;;;14.30;44.90;;;;;;5014048;28;19920;-60
2022/04/29 03:09:00;;;;;;;;;;;14.30;44.80;;;;;;5013899;28;20246;-59
2022/04/29 03:11:26;;;;;;;;;;;14.10;46.20;;;;;;5014082;28;19910;-58
2022/04/29 03:13:51;;;;;;;;;;;14.10;47.00;;;;;;5013768;28;19937;-60
2022/04/29 03:16:17;;;;;;;;;;;14.00;47.60;;;;;;5013623;28;20383;-60
2022/04/29 03:18:43;;;;;;;;;;;13.90;46.60;;;;;;5013923;28;19906;-60
2022/04/29 03:21:10;;;;;;;;;;;13.90;46.90;;;;;;5013732;28;19917;-58
2022/04/29 03:23:35;;;;;;;;;;;13.90;46.70;;;;;;5013335;28;19925;-61
2022/04/29 03:26:01;;;;;;;;;;;13.80;47.10;;;;;;5013665;28;19909;-61
2022/04/29 03:28:27;;;;;;;;;;;13.80;47.20;;;;;;5013641;28;20285;-58
2022/04/29 03:30:52;;;;;;;;;;;13.70;46.90;;;;;;5013474;28;19909;-60
2022/04/29 03:33:18;;;;;;;;;;;13.70;47.30;;;;;;5013942;28;19910;-60
2022/04/29 03:35:45;;;;;;;;;;;13.80;46.80;;;;;;5013751;28;19909;-59
2022/04/29 03:38:10;;;;;;;;;;;13.70;47.40;;;;;;5013658;28;19910;-59
2022/04/29 03:40:36;;;;;;;;;;;13.80;45.90;;;;;;5013535;28;20384;-59
2022/04/29 03:43:02;;;;;;;;;;;13.90;44.40;;;;;;5014680;28;20008;-59
2022/04/29 03:45:27;;;;;;;;;;;14.00;43.30;;;;;;5017314;28;19909;-60
2022/04/29 03:47:54;;;;;;;;;;;14.10;43.70;;;;;;5017073;28;19909;-60
2022/04/29 03:50:23;;;;;;;;;;;14.20;45.10;;;;;;5017445;28;19932;-60
2022/04/29 03:52:50;;;;;;;;;;;14.10;45.10;;;;;;5017019;28;20266;-60
2022/04/29 03:55:17;;;;;;;;;;;14.10;44.00;;;;;;5016929;28;20421;-60
2022/04/29 03:57:43;;;;;;;;;;;14.10;43.70;;;;;;5017088;28;19909;-60
2022/04/29 04:00:09;;;;;;;;;;;14.10;43.60;;;;;;5016797;28;19918;-60
2022/04/29 04:02:35;;;;;;;;;;;14.10;43.30;;;;;;5016906;28;19913;-58
2022/04/29 04:05:00;;;;;;;;;;;14.10;43.60;;;;;;5016713;28;20034;-60
2022/04/29 04:07:26;;;;;;;;;;;14.30;42.60;;;;;;5016890;28;19955;-59
2022/04/29 04:09:51;;;;;;;;;;;14.40;42.40;;;;;;5017028;28;19915;-59
2022/04/29 04:12:17;;;;;;;;;;;14.30;43.40;;;;;;5016612;28;20314;-59
2022/04/29 04:14:43;;;;;;;;;;;14.20;43.90;;;;;;5016456;28;19948;-59
2022/04/29 04:17:08;;;;;;;;;;;14.10;44.60;;;;;;5016756;28;19916;-60
2022/04/29 04:19:35;;;;;;;;;;;14.10;43.00;;;;;;5016670;28;19987;-60
2022/04/29 04:22:01;;;;;;;;;;;14.20;42.10;;;;;;5016608;28;19963;-59
2022/04/29 04:24:26;;;;;;;;;;;14.30;42.10;;;;;;5016596;28;19925;-60
2022/04/29 04:26:52;;;;;;;;;;;14.40;43.30;;;;;;5016573;28;19916;-60
2022/04/29 04:29:17;;;;;;;;;;;14.30;44.30;;;;;;5016548;28;19917;-63
2022/04/29 04:31:43;;;;;;;;;;;14.20;45.50;;;;;;5016114;28;19909;-61
2022/04/29 04:36:53;;;;;;;;;;;14.00;46.10;;;;;;5016295;28;19916;-60
2022/04/29 04:39:19;;;;;;;;;;;13.80;46.30;;;;;;5016205;28;19914;-60
2022/04/29 04:41:44;;;;;;;;;;;13.90;44.60;;;;;;5015988;28;19972;-60
2022/04/29 04:44:10;;;;;;;;;;;13.80;45.90;;;;;;5016138;28;20346;-61
2022/04/29 04:46:36;;;;;;;;;;;13.80;43.90;;;;;;5016209;28;19917;-60
2022/04/29 04:49:01;;;;;;;;;;;13.90;45.70;;;;;;5016067;28;20349;-61
2022/04/29 04:51:27;;;;;;;;;;;14.00;45.40;;;;;;5015604;28;19909;-60
2022/04/29 04:53:52;;;;;;;;;;;14.10;43.60;;;;;;5015723;28;19910;-60
2022/04/29 04:56:18;;;;;;;;;;;14.10;43.80;;;;;;5015402;28;20273;-60
2022/04/29 04:58:44;;;;;;;;;;;14.20;44.10;;;;;;5015738;28;19909;-59
2022/04/29 05:01:09;;;;;;;;;;;14.20;43.50;;;;;;5015753;28;19909;-59
2022/04/29 05:03:35;;;;;;;;;;;14.30;43.60;;;;;;5015845;28;20370;-61
2022/04/29 05:06:00;;;;;;;;;;;14.30;43.20;;;;;;5015655;28;19964;-61
2022/04/29 05:08:26;;;;;;;;;;;14.40;44.30;;;;;;5015674;28;19910;-60
2022/04/29 05:10:51;;;;;;;;;;;14.40;45.40;;;;;;5014145;28;19945;-60
2022/04/29 05:13:17;;;;;;;;;;;14.30;45.30;;;;;;5015533;28;19932;-60
2022/04/29 05:15:42;;;;;;;;;;;14.30;44.70;;;;;;5015389;28;20265;-63
2022/04/29 05:18:09;;;;;;;;;;;14.30;46.00;;;;;;5015417;28;19910;-63
2022/04/29 05:20:34;;;;;;;;;;;14.20;46.40;;;;;;5015486;28;20294;-61
2022/04/29 05:23:00;;;;;;;;;;;14.20;47.30;;;;;;5015226;28;19917;-63
2022/04/29 05:25:25;;;;;;;;;;;14.10;48.80;;;;;;5015455;28;20055;-61
2022/04/29 05:27:51;;;;;;;;;;;14.00;49.80;;;;;;5015602;28;19910;-63
2022/04/29 05:30:16;;;;;;;;;;;14.00;48.80;;;;;;5015392;28;19910;-61
2022/04/29 05:32:42;;;;;;;;;;;13.80;48.90;;;;;;5015275;28;19909;-65
2022/04/29 05:35:09;;;;;;;;;;;13.90;49.80;;;;;;5015029;28;19991;-61
2022/04/29 05:37:35;;;;;;;;;;;13.80;49.80;;;;;;5015289;28;20385;-61
2022/04/29 05:42:44;;;;;;;;;;;13.60;52.20;;;;;;5014974;28;20266;-62
2022/04/29 05:45:10;;;;;;;;;;;13.50;51.60;;;;;;5015445;28;19910;-63
2022/04/29 05:47:36;;;;;;;;;;;13.60;50.60;;;;;;5015482;28;19916;-64
2022/04/29 05:50:03;;;;;;;;;;;13.60;50.70;;;;;;5015263;28;20005;-63
2022/04/29 05:52:28;;;;;;;;;;;13.60;52.50;;;;;;5014688;28;19910;-62
2022/04/29 05:54:54;;;;;;;;;;;13.80;52.20;;;;;;5015194;28;20265;-61
2022/04/29 05:57:20;;;;;;;;;;;14.20;51.60;;;;;;5014908;28;19935;-61
2022/04/29 05:59:45;;;;;;;;;;;14.70;51.40;;;;;;5014686;28;20369;-67
2022/04/29 06:02:11;;;;;;;;;;;15.20;48.70;;;;;;5014499;28;19910;-62
2022/04/29 06:04:36;;;;;;;;;;;15.60;48.60;;;;;;5014611;28;19993;-59
2022/04/29 06:07:02;;;;;;;;;;;16.00;49.10;;;;;;5013635;28;19909;-60
2022/04/29 06:09:27;;;;;;;;;;;16.40;48.70;;;;;;5014423;28;19932;-58
2022/04/29 06:11:53;;;;;;;;;;;16.70;46.40;;;;;;5014315;28;19910;-58
2022/04/29 06:14:19;;;;;;;;;;;16.70;44.80;;;;;;5014439;28;19946;-58
2022/04/29 06:16:46;;;;;;;;;;;17.10;48.30;;;;;;5014362;28;19910;-57
2022/04/29 06:19:12;;;;;;;;;;;17.50;47.30;;;;;;5014319;28;20376;-57
2022/04/29 06:21:38;;;;;;;;;;;17.80;43.60;;;;;;5014135;28;19952;-57
2022/04/29 06:24:04;;;;;;;;;;;18.10;41.20;;;;;;5014070;28;19976;-58
2022/04/29 06:26:30;;;;;;;;;;;18.00;43.70;;;;;;5013862;28;19917;-58
2022/04/29 06:28:56;;;;;;;;;;;18.20;41.60;;;;;;5012701;28;19910;-57
2022/04/29 06:31:21;;;;;;;;;;;18.30;36.60;;;;;;5014136;28;19956;-57
2022/04/29 06:33:47;;;;;;;;;;;18.50;37.70;;;;;;5014225;28;19917;-57
2022/04/29 06:36:12;;;;;;;;;;;18.60;36.50;;;;;;5013974;28;19909;-56
2022/04/29 06:38:38;;;;;;;;;;;18.90;39.80;;;;;;5013335;28;19925;-57
2022/04/29 06:41:04;;;;;;;;;;;19.10;36.60;;;;;;5013939;28;19919;-61
2022/04/29 06:43:30;;;;;;;;;;;19.00;33.90;;;;;;5013879;28;19909;-60
2022/04/29 06:45:55;;;;;;;;;;;19.00;34.00;;;;;;5013895;28;19921;-60
2022/04/29 06:48:21;;;;;;;;;;;19.10;35.70;;;;;;5013799;28;20271;-63
2022/04/29 06:50:47;;;;;;;;;;;19.30;33.80;;;;;;5014051;28;19996;-62
2022/04/29 06:53:12;;;;;;;;;;;19.30;36.40;;;;;;5013683;28;19909;-62
2022/04/29 06:55:39;;;;;;;;;;;19.60;38.40;;;;;;5013983;28;19956;-62
2022/04/29 06:58:05;;;;;;;;;;;19.80;36.90;;;;;;5012423;28;19909;-61
2022/04/29 07:00:30;;;;;;;;;;;20.00;33.50;;;;;;5013696;28;19918;-61
2022/04/29 07:02:57;;;;;;;;;;;20.00;32.20;;;;;;5013141;28;20258;-62
2022/04/29 07:05:23;;;;;;;;;;;19.80;33.50;;;;;;5012253;28;19920;-62
2022/04/29 07:07:52;;;;;;;;;;;19.60;32.90;;;;;;5008942;28;20333;-59
2022/04/29 07:10:17;;;;;;;;;;;19.40;31.80;;;;;;5012018;28;19934;-58
2022/04/29 07:12:44;;;;;;;;;;;19.50;33.50;;;;;;5011952;28;20354;-62
2022/04/29 07:15:13;;;;;;;;;;;19.70;31.20;;;;;;5010797;28;20363;-61
2022/04/29 07:17:42;;;;;;;;;;;19.60;31.00;;;;;;5012052;28;20377;-60
2022/04/29 07:20:08;;;;;;;;;;;19.50;32.20;;;;;;5016613;28;19925;-62
2022/04/29 07:22:35;;;;;;;;;;;19.50;32.80;;;;;;5017211;28;19917;-60
2022/04/29 07:25:01;;;;;;;;;;;19.60;33.00;;;;;;5017425;28;20277;-60
2022/04/29 07:27:28;;;;;;;;;;;19.70;31.20;;;;;;5017414;28;19963;-64
2022/04/29 07:29:54;;;;;;;;;;;19.70;33.10;;;;;;5017327;28;19909;-63
2022/04/29 07:32:20;;;;;;;;;;;19.80;31.90;;;;;;5017218;28;20365;-64
2022/04/29 07:42:58;;;;;;;;;;;20.20;33.60;;;;;;5016763;28;20387;-61
2022/04/29 07:45:24;;;;;;;;;;;20.40;31.20;;;;;;5016990;28;20391;-63
2022/04/29 07:47:51;;;;;;;;;;;20.10;30.10;;;;;;5016838;28;19910;-62
2022/04/29 07:50:16;;;;;;;;;;;19.80;30.80;;;;;;5016765;28;19917;-62
2022/04/29 07:52:42;;;;;;;;;;;19.70;30.70;;;;;;5016795;28;19909;-61
2022/04/29 07:55:07;;;;;;;;;;;19.90;31.20;;;;;;5017005;28;19916;-62
2022/04/29 07:57:33;;;;;;;;;;;20.20;32.10;;;;;;5016985;28;19918;-63
2022/04/29 07:59:58;;;;;;;;;;;20.20;31.10;;;;;;5016578;28;20373;-63
2022/04/29 08:02:24;;;;;;;;;;;20.20;31.10;;;;;;5015961;28;19960;-63
2022/04/29 08:04:50;;;;;;;;;;;20.10;30.10;;;;;;5014763;28;19910;-62
2022/04/29 08:07:15;;;;;;;;;;;20.00;30.70;;;;;;5016283;28;19914;-63
2022/04/29 08:09:41;;;;;;;;;;;19.90;31.20;;;;;;5015942;28;20369;-59
2022/04/29 08:12:07;;;;;;;;;;;20.10;30.70;;;;;;5015920;28;19916;-60
2022/04/29 08:14:32;;;;;;;;;;;20.20;30.30;;;;;;5015936;28;19910;-60
2022/04/29 08:16:58;;;;;;;;;;;20.10;30.80;;;;;;5015898;28;19910;-61
2022/04/29 08:19:23;;;;;;;;;;;20.30;31.40;;;;;;5015950;28;19940;-59
2022/04/29 08:21:49;;;;;;;;;;;20.30;29.40;;;;;;5015827;28;19922;-59
2022/04/29 08:24:15;;;;;;;;;;;20.20;31.60;;;;;;5015711;28;19933;-59
2022/04/29 08:26:40;;;;;;;;;;;20.40;31.60;;;;;;5015783;28;19910;-59
2022/04/29 08:29:10;;;;;;;;;;;20.40;30.40;;;;;;5014089;28;21605;-59
2022/04/29 08:31:36;;;;;;;;;;;20.60;29.70;;;;;;5013290;28;19949;-59
2022/04/29 08:34:02;;;;;;;;;;;20.60;30.10;;;;;;5015573;28;20326;-59
2022/04/29 08:36:30;;;;;;;;;;;20.50;29.10;;;;;;5015440;28;19909;-59
2022/04/29 08:38:56;;;;;;;;;;;20.50;30.00;;;;;;5013022;28;20259;-59
2022/04/29 08:41:22;;;;;;;;;;;20.40;29.40;;;;;;5015289;28;19960;-60
2022/04/29 08:43:48;;;;;;;;;;;20.20;30.00;;;;;;5015290;28;19917;-60
2022/04/29 08:46:13;;;;;;;;;;;20.40;30.50;;;;;;5015265;28;19909;-59
2022/04/29 08:48:41;;;;;;;;;;;20.50;30.70;;;;;;5015424;28;19913;-58
2022/04/29 08:51:07;;;;;;;;;;;20.50;30.00;;;;;;5015378;28;19910;-59
2022/04/29 08:53:34;;;;;;;;;;;20.50;29.70;;;;;;5014983;28;19910;-60
2022/04/29 08:58:45;;;;;;;;;;;20.90;31.20;;;;;;5013838;28;20227;-60
2022/04/29 09:01:15;;;;;;;;;;;21.00;31.10;;;;;;5014685;28;20020;-61
2022/04/29 09:03:42;;;;;;;;;;;21.00;30.70;;;;;;5014381;28;19914;-61
2022/04/29 09:06:07;;;;;;;;;;;21.10;31.60;;;;;;5014572;28;19917;-61
2022/04/29 09:08:40;;;;;;;;;;;20.90;29.30;;;;;;5014675;28;20052;-60
2022/04/29 09:11:07;;;;;;;;;;;20.60;30.10;;;;;;5014812;28;19920;-60
2022/04/29 09:13:35;;;;;;;;;;;20.70;30.00;;;;;;5013687;28;20016;-61
2022/04/29 09:16:11;;;;;;;;;;;20.90;31.80;;;;;;5014858;28;19909;-61
2022/04/29 09:18:37;;;;;;;;;;;20.80;31.30;;;;;;5012326;28;20309;-62
2022/04/29 09:21:16;;;;;;;;;;;20.90;30.10;;;;;;5014261;28;19923;-59
2022/04/29 09:23:44;;;;;;;;;;;20.90;30.30;;;;;;5012363;28;20370;-60
2022/04/29 09:26:24;;;;;;;;;;;20.90;30.40;;;;;;5014699;28;19914;-61
2022/04/29 09:28:50;;;;;;;;;;;21.00;30.20;;;;;;5013815;28;19913;-61
2022/04/29 09:31:16;;;;;;;;;;;21.10;29.80;;;;;;5014341;28;19967;-59
2022/04/29 09:33:52;;;;;;;;;;;21.10;29.80;;;;;;5013617;28;20016;-62
2022/04/29 09:36:21;;;;;;;;;;;20.90;29.80;;;;;;5011183;28;19910;-62
2022/04/29 09:41:35;;;;;;;;;;;20.90;29.60;;;;;;5014673;28;19924;-59
2022/04/29 09:44:01;;;;;;;;;;;20.70;30.60;;;;;;5014773;28;19914;-61
2022/04/29 09:46:26;;;;;;;;;;;20.70;31.20;;;;;;5014888;28;19964;-61
2022/04/29 09:48:55;;;;;;;;;;;20.80;31.50;;;;;;5014429;28;19909;-60
2022/04/29 09:51:39;;;;;;;;;;;20.90;30.80;;;;;;5013835;28;20362;-60
2022/04/29 09:54:17;;;;;;;;;;;20.90;30.50;;;;;;5014077;28;19917;-60
2022/04/29 09:56:44;;;;;;;;;;;20.90;30.80;;;;;;5012226;28;19910;-61
2022/04/29 09:59:10;;;;;;;;;;;20.70;30.10;;;;;;5014004;28;19959;-60
2022/04/29 10:01:36;;;;;;;;;;;20.90;31.10;;;;;;5013874;28;20008;-62
2022/04/29 10:04:01;;;;;;;;;;;20.90;30.70;;;;;;5013947;28;20325;-60
2022/04/29 10:06:28;;;;;;;;;;;21.10;30.90;;;;;;5014522;28;19914;-60
2022/04/29 10:08:56;;;;;;;;;;;21.30;31.10;;;;;;5014641;28;19956;-60
2022/04/29 10:11:22;;;;;;;;;;;21.50;30.60;;;;;;5014503;28;19909;-61
2022/04/29 10:13:49;;;;;;;;;;;21.10;29.10;;;;;;5014882;28;19956;-62
2022/04/29 10:16:16;;;;;;;;;;;21.00;30.10;;;;;;5013878;28;20008;-61
2022/04/29 10:21:31;;;;;;;;;;;21.10;29.70;;;;;;5014437;28;20419;-61
2022/04/29 10:23:57;;;;;;;;;;;20.80;29.20;;;;;;5013981;28;19925;-61
2022/04/29 10:26:23;;;;;;;;;;;20.80;29.70;;;;;;5014450;28;20304;-60
2022/04/29 10:28:49;;;;;;;;;;;20.80;30.00;;;;;;5014422;28;19910;-60
2022/04/29 10:31:23;;;;;;;;;;;20.90;29.60;;;;;;5014248;28;20019;-61
2022/04/29 10:33:49;;;;;;;;;;;21.10;30.00;;;;;;5013370;28;19920;-60
2022/04/29 10:36:15;;;;;;;;;;;21.20;29.90;;;;;;5013424;28;19955;-61
2022/04/29 10:38:48;;;;;;;;;;;21.30;29.50;;;;;;5013505;28;20301;-62
2022/04/29 10:41:13;;;;;;;;;;;21.40;29.40;;;;;;5013244;28;19944;-62
2022/04/29 10:43:40;;;;;;;;;;;21.30;29.50;;;;;;5012849;28;19910;-62
2022/04/29 10:46:06;;;;;;;;;;;21.40;29.80;;;;;;5013279;28;19917;-61
2022/04/29 10:48:32;;;;;;;;;;;21.40;28.80;;;;;;5013340;28;19910;-61
2022/04/29 10:51:07;;;;;;;;;;;21.40;29.00;;;;;;5013225;28;19914;-60
2022/04/29 10:53:40;;;;;;;;;;;21.40;28.70;;;;;;5012541;28;19909;-61
2022/04/29 10:56:25;;;;;;;;;;;21.60;29.80;;;;;;5013094;28;19914;-62
2022/04/29 10:58:50;;;;;;;;;;;21.90;29.60;;;;;;5012911;28;19951;-60
2022/04/29 11:01:35;;;;;;;;;;;22.00;29.40;;;;;;5012757;28;19957;-59
2022/04/29 11:04:00;;;;;;;;;;;22.10;28.60;;;;;;5010187;28;20015;-59
2022/04/29 11:06:58;;;;;;;;;;;21.70;28.50;;;;;;5011954;28;20423;-59
2022/04/29 11:09:24;;;;;;;;;;;21.80;30.00;;;;;;5011979;28;19917;-57
2022/04/29 11:11:49;;;;;;;;;;;21.70;29.30;;;;;;5012253;28;19917;-65
2022/04/29 11:14:15;;;;;;;;;;;22.00;29.10;;;;;;5012314;28;19921;-62
2022/04/29 11:16:53;;;;;;;;;;;21.90;28.20;;;;;;5012386;28;20428;-63
2022/04/29 11:19:21;;;;;;;;;;;21.80;29.10;;;;;;5011782;28;19918;-67
2022/04/29 11:24:45;;;;;;;;;;;21.90;28.60;;;;;;5012292;28;19974;-67
2022/04/29 11:27:10;;;;;;;;;;;21.80;28.50;;;;;;5012003;28;19909;-68
2022/04/29 11:29:46;;;;;;;;;;;21.90;27.60;;;;;;5011953;28;20396;-62
2022/04/29 11:32:12;;;;;;;;;;;22.00;28.70;;;;;;4992594;28;19965;-65
2022/04/29 11:34:53;;;;;;;;;;;22.00;30.10;;;;;;4991349;28;19992;-68
2022/04/29 11:37:23;;;;;;;;;;;22.00;28.30;;;;;;4991452;28;19910;-67
2022/04/29 11:39:49;;;;;;;;;;;21.80;28.10;;;;;;4991676;28;19918;-66
2022/04/29 11:42:18;;;;;;;;;;;21.90;29.50;;;;;;4991573;28;19917;-62
2022/04/29 11:44:45;;;;;;;;;;;22.00;28.20;;;;;;4992224;28;19965;-68
2022/04/29 11:47:11;;;;;;;;;;;22.30;28.60;;;;;;4992303;28;19914;-64
2022/04/29 11:49:37;;;;;;;;;;;22.20;28.40;;;;;;4992410;28;20285;-69
2022/04/29 11:52:22;;;;;;;;;;;22.20;28.10;;;;;;4992180;28;19916;-64
2022/04/29 11:54:48;;;;;;;;;;;22.20;27.80;;;;;;4990606;28;20333;-64
2022/04/29 11:57:14;;;;;;;;;;;21.90;27.50;;;;;;4992208;28;19910;-66
2022/04/29 11:59:40;;;;;;;;;;;22.10;27.90;;;;;;4992056;28;19917;-64
2022/04/29 12:02:08;;;;;;;;;;;22.10;27.40;;;;;;4992131;28;19920;-64
2022/04/29 12:04:34;;;;;;;;;;;21.80;26.70;;;;;;4992206;28;19920;-67
2022/04/29 12:07:00;;;;;;;;;;;21.50;28.50;;;;;;4995507;28;19996;-65
2022/04/29 12:09:32;;;;;;;;;;;21.50;27.70;;;;;;4995280;28;19914;-67
2022/04/29 12:11:59;;;;;;;;;;;21.70;28.20;;;;;;4994660;28;19914;-64
2022/04/29 12:14:25;;;;;;;;;;;22.00;28.80;;;;;;4998669;28;19945;-66
2022/04/29 12:16:51;;;;;;;;;;;22.10;27.20;;;;;;4995062;28;19909;-66
2022/04/29 12:19:18;;;;;;;;;;;22.10;27.80;;;;;;4993546;28;19914;-65
2022/04/29 12:21:56;;;;;;;;;;;22.10;27.30;;;;;;4995234;28;20377;-64
2022/04/29 12:24:22;;;;;;;;;;;22.30;27.90;;;;;;4994548;28;19922;-64
2022/04/29 12:27:04;;;;;;;;;;;22.40;27.90;;;;;;5009061;28;19914;-65
2022/04/29 12:29:33;;;;;;;;;;;22.50;27.50;;;;;;4994454;28;19917;-62
2022/04/29 12:35:09;;;;;;;;;;;22.50;27.40;;;;;;4994641;28;19920;-62
2022/04/29 12:37:35;;;;;;;;;;;22.60;27.20;;;;;;4994457;28;19922;-63
2022/04/29 12:40:04;;;;;;;;;;;22.50;27.20;;;;;;4994693;28;20008;-61
2022/04/29 12:42:30;;;;;;;;;;;22.50;26.50;;;;;;4994917;28;20362;-61
2022/04/29 12:47:43;;;;;;;;;;;22.60;26.70;;;;;;4995294;28;19968;-63
2022/04/29 12:50:15;;;;;;;;;;;22.50;26.90;;;;;;5010931;28;20285;-60
2022/04/29 12:52:50;;;;;;;;;;;22.70;27.40;;;;;;5021358;28;20373;-61
2022/04/29 12:55:16;;;;;;;;;;;22.70;26.50;;;;;;5024092;28;19992;-62
2022/04/29 12:57:41;;;;;;;;;;;22.50;26.70;;;;;;5025796;28;19909;-61
2022/04/29 13:00:08;;;;;;;;;;;22.70;27.30;;;;;;5024888;28;19917;-64
2022/04/29 13:02:33;;;;;;;;;;;23.00;27.20;;;;;;5024020;28;19963;-62
2022/04/29 13:04:59;;;;;;;;;;;22.90;26.30;;;;;;5026017;28;20369;-65
2022/04/29 13:07:25;;;;;;;;;;;22.60;26.90;;;;;;5023284;28;19936;-65
2022/04/29 13:09:51;;;;;;;;;;;22.50;27.80;;;;;;5024467;28;20361;-64
2022/04/29 13:12:17;;;;;;;;;;;22.60;27.70;;;;;;5025782;28;19909;-66
2022/04/29 13:14:43;;;;;;;;;;;22.50;26.50;;;;;;5024215;28;19910;-65
2022/04/29 13:17:08;;;;;;;;;;;22.40;26.60;;;;;;5024246;28;19932;-62
2022/04/29 13:19:36;;;;;;;;;;;22.40;26.80;;;;;;5025615;28;19917;-68
2022/04/29 13:22:02;;;;;;;;;;;22.10;26.20;;;;;;5021582;28;20004;-65
2022/04/29 13:24:27;;;;;;;;;;;22.10;26.70;;;;;;5024405;28;20013;-67
2022/04/29 13:26:53;;;;;;;;;;;22.40;27.20;;;;;;5025441;28;19910;-64
2022/04/29 13:29:19;;;;;;;;;;;22.60;26.90;;;;;;5023281;28;20010;-67
2022/04/29 13:31:45;;;;;;;;;;;22.60;26.40;;;;;;5024874;28;19909;-67
2022/04/29 13:34:11;;;;;;;;;;;22.70;26.50;;;;;;5022887;28;20012;-65
2022/04/29 13:36:37;;;;;;;;;;;22.50;26.10;;;;;;5020778;28;19909;-64
2022/04/29 13:39:02;;;;;;;;;;;22.30;26.40;;;;;;5024704;28;20360;-68
2022/04/29 13:41:28;;;;;;;;;;;22.50;26.80;;;;;;5024184;28;19913;-64
2022/04/29 13:43:53;;;;;;;;;;;22.60;25.60;;;;;;5012807;28;19914;-71
2022/04/29 13:46:19;;;;;;;;;;;22.60;27.40;;;;;;5014425;28;19909;-68
2022/04/29 13:48:45;;;;;;;;;;;22.80;26.90;;;;;;5014473;28;19909;-67
2022/04/29 13:51:10;;;;;;;;;;;22.20;26.00;;;;;;5014222;28;19910;-69
2022/04/29 13:53:38;;;;;;;;;;;22.30;27.10;;;;;;5014151;28;19913;-69
2022/04/29 13:56:04;;;;;;;;;;;22.60;27.00;;;;;;5014211;28;20361;-66
2022/04/29 13:58:29;;;;;;;;;;;22.70;26.20;;;;;;5012805;28;19916;-64
2022/04/29 14:00:55;;;;;;;;;;;22.60;26.10;;;;;;5013924;28;19999;-68
2022/04/29 14:03:24;;;;;;;;;;;22.60;26.20;;;;;;5013888;28;19917;-62
2022/04/29 14:05:50;;;;;;;;;;;22.60;25.60;;;;;;5003557;28;19910;-68
2022/04/29 14:08:16;;;;;;;;;;;22.50;25.00;;;;;;5005149;28;20011;-66
2022/04/29 14:10:42;;;;;;;;;;;22.40;26.20;;;;;;5003695;28;19913;-65
2022/04/29 14:13:08;;;;;;;;;;;22.40;25.60;;;;;;5013675;28;20068;-68
2022/04/29 14:15:34;;;;;;;;;;;22.60;26.00;;;;;;5013723;28;19910;-60
2022/04/29 14:17:59;;;;;;;;;;;22.80;27.10;;;;;;5013801;28;19935;-64
2022/04/29 14:20:25;;;;;;;;;;;22.90;26.40;;;;;;5003741;28;19921;-62
2022/04/29 14:22:51;;;;;;;;;;;22.90;26.30;;;;;;5004478;28;19925;-59
2022/04/29 14:25:16;;;;;;;;;;;22.70;25.60;;;;;;5013752;28;19917;-67
2022/04/29 14:27:42;;;;;;;;;;;22.50;25.70;;;;;;5000654;28;19993;-64
2022/04/29 14:30:08;;;;;;;;;;;22.50;26.20;;;;;;4994123;28;20012;-65
2022/04/29 14:32:34;;;;;;;;;;;22.60;26.60;;;;;;4994282;28;19964;-66
2022/04/29 14:35:03;;;;;;;;;;;22.60;26.20;;;;;;4994607;28;19910;-66
2022/04/29 14:37:31;;;;;;;;;;;22.50;25.70;;;;;;4994269;28;19956;-63
2022/04/29 14:39:56;;;;;;;;;;;22.60;26.10;;;;;;4994132;28;20345;-69
2022/04/29 14:42:22;;;;;;;;;;;22.60;25.20;;;;;;4999372;28;19913;-64
2022/04/29 14:44:48;;;;;;;;;;;22.60;26.50;;;;;;5004616;28;20282;-68